Hibbing, Minnesota
Current Conditions -  °F | °C
As of 10:53 PM on Sunday 19 Oct 2014 (Local Time) from KHIB Reporting Station
Overcast Overcast  
Wind Chill: 51°   Ceiling: 3600
Heat Index: 51°   Visibility: 10mi
Dew Point: 41°   Wind: 14mph
Humidity: 68%   Direction: 330°NNW
Pressure: 29.83"   Gusts: NA
Location:  47.42°N, 92.94°W
Report Text: KHIB 200353Z AUTO 33012KT 10SM OVC036 11/05 A2983 RMK AO2 SLP108 T01060050
Loading
Personal Weather Stations






























Interactive Weather Map
Tropical Storm Tracking
New forecast layout! Learn more

10-Day Weather Forecast

Advertisements
Track Severe Weather on mobile